Time;durP1;ratioP1;P1;durP2;ratioP2;P2;SDS_P1;SDS_P2;PMS_P1;PMS_P2;Temp;Humidity;BMP_temperature;BMP_pressure;BME280_temperature;BME280_humidity;BME280_pressure;Samples;Min_cycle;Max_cycle;Signal;HPM_P1;HPM_P2
2022/09/26 00:01:59;;;;;;;0.20;0.20;;;9.30;99.90;;;;;;5075750;28;20185;-94
2022/09/26 00:04:28;;;;;;;0.23;0.23;;;9.30;99.90;;;;;;5085469;28;20645;-95
2022/09/26 00:06:55;;;;;;;0.30;0.30;;;9.30;99.90;;;;;;5062766;28;20425;-95
2022/09/26 00:09:22;;;;;;;0.30;0.30;;;9.40;99.90;;;;;;5095406;28;20433;-94
2022/09/26 00:11:48;;;;;;;0.20;0.20;;;9.40;99.90;;;;;;5076734;28;21013;-94
2022/09/26 00:14:17;;;;;;;0.20;0.20;;;9.40;99.90;;;;;;5086759;28;20554;-94
2022/09/26 00:16:43;;;;;;;0.30;0.30;;;9.40;99.90;;;;;;5073854;28;20205;-93
2022/09/26 00:19:08;;;;;;;0.20;0.20;;;9.40;99.90;;;;;;5087712;28;20431;-94
2022/09/26 00:21:34;;;;;;;0.20;0.20;;;9.50;99.90;;;;;;5072065;28;20553;-95
2022/09/26 00:24:01;;;;;;;0.20;0.20;;;9.50;99.90;;;;;;5089772;28;20197;-95
2022/09/26 00:26:29;;;;;;;0.20;0.20;;;9.50;99.90;;;;;;5090084;28;20189;-94
2022/09/26 00:28:55;;;;;;;0.20;0.20;;;9.50;99.90;;;;;;5093826;28;20436;-93
2022/09/26 00:31:25;;;;;;;0.20;0.20;;;9.50;99.90;;;;;;5076017;28;20489;-93
2022/09/26 00:33:51;;;;;;;0.20;0.20;;;9.50;99.90;;;;;;5095171;28;20427;-93
2022/09/26 00:36:17;;;;;;;0.20;0.20;;;9.50;99.90;;;;;;5091516;28;20468;-93
2022/09/26 00:38:46;;;;;;;0.20;0.20;;;9.50;99.90;;;;;;5077339;28;20985;-94
2022/09/26 00:41:12;;;;;;;0.30;0.30;;;9.60;99.90;;;;;;5074181;28;20275;-93
2022/09/26 00:43:47;;;;;;;0.20;0.20;;;9.50;99.90;;;;;;5067252;28;20439;-95
2022/09/26 00:46:34;;;;;;;0.20;0.20;;;9.50;99.90;;;;;;5093995;28;20473;-94
2022/09/26 00:49:22;;;;;;;0.20;0.20;;;9.50;99.90;;;;;;5059310;28;20459;-94
2022/09/26 00:52:04;;;;;;;0.30;0.30;;;9.50;99.90;;;;;;5075083;28;20447;-95
2022/09/26 00:54:31;;;;;;;0.20;0.20;;;9.50;99.90;;;;;;5086970;28;20479;-95
2022/09/26 00:57:02;;;;;;;0.20;0.20;;;9.50;99.90;;;;;;5082697;28;20467;-94
2022/09/26 00:59:33;;;;;;;0.20;0.20;;;9.50;99.90;;;;;;5084610;28;20450;-94
2022/09/26 01:01:59;;;;;;;0.30;0.30;;;9.50;99.90;;;;;;5077203;28;20432;-95
2022/09/26 01:04:28;;;;;;;0.30;0.30;;;9.50;99.90;;;;;;5094831;28;20519;-94
2022/09/26 01:06:57;;;;;;;0.30;0.30;;;9.50;99.90;;;;;;5076334;28;20435;-89
2022/09/26 01:09:23;;;;;;;0.30;0.30;;;9.50;99.90;;;;;;5092718;28;20965;-95
2022/09/26 01:11:48;;;;;;;0.20;0.20;;;9.50;99.90;;;;;;5093716;28;20538;-93
2022/09/26 01:14:14;;;;;;;0.20;0.20;;;9.50;99.90;;;;;;5092677;28;20594;-95
2022/09/26 01:16:43;;;;;;;0.20;0.20;;;9.50;99.90;;;;;;5090625;28;20209;-90
2022/09/26 01:19:15;;;;;;;0.20;0.20;;;9.50;99.90;;;;;;5087627;28;20498;-93
2022/09/26 01:22:23;;;;;;;0.20;0.20;;;9.50;99.90;;;;;;5093692;28;20458;-93
2022/09/26 01:24:59;;;;;;;0.20;0.20;;;9.50;99.90;;;;;;5082460;28;20431;-92
2022/09/26 01:27:42;;;;;;;0.20;0.20;;;9.50;99.90;;;;;;5084966;28;20423;-94
2022/09/26 01:30:13;;;;;;;0.20;0.20;;;9.50;99.90;;;;;;5072657;28;20439;-92
2022/09/26 01:33:13;;;;;;;0.20;0.20;;;9.50;99.90;;;;;;5061596;28;20443;-94
2022/09/26 01:35:58;;;;;;;0.20;0.20;;;9.50;99.90;;;;;;5088761;28;21007;-94
2022/09/26 01:38:28;;;;;;;0.20;0.20;;;9.50;99.90;;;;;;5085282;28;20459;-95
2022/09/26 01:41:08;;;;;;;0.20;0.20;;;9.50;99.90;;;;;;5075532;28;20439;-96
2022/09/26 01:43:53;;;;;;;0.20;0.20;;;9.50;99.90;;;;;;5091343;28;20521;-93
2022/09/26 01:46:30;;;;;;;0.20;0.20;;;9.50;99.90;;;;;;5090172;28;20440;-93
2022/09/26 01:49:15;;;;;;;0.20;0.20;;;9.50;99.90;;;;;;5061645;28;20442;-93
2022/09/26 01:52:11;;;;;;;0.30;0.30;;;9.50;99.90;;;;;;5088586;28;20489;-94
2022/09/26 01:55:04;;;;;;;0.20;0.20;;;9.50;99.90;;;;;;5082863;28;20931;-94
2022/09/26 01:57:39;;;;;;;0.20;0.20;;;9.50;99.90;;;;;;5080494;28;20483;-95
2022/09/26 02:00:07;;;;;;;0.20;0.20;;;9.50;99.90;;;;;;5062661;28;20463;-94
2022/09/26 02:02:42;;;;;;;0.30;0.30;;;9.60;99.90;;;;;;5083136;28;20492;-94
2022/09/26 02:05:31;;;;;;;0.27;0.27;;;9.60;99.90;;;;;;5089476;28;20435;-94
2022/09/26 02:08:09;;;;;;;0.20;0.20;;;9.60;99.90;;;;;;5084486;28;20448;-94
2022/09/26 02:10:49;;;;;;;0.30;0.30;;;9.60;99.90;;;;;;5089182;28;20454;-96
2022/09/26 02:13:20;;;;;;;0.30;0.30;;;9.60;99.90;;;;;;5090469;28;20483;-94
2022/09/26 02:15:50;;;;;;;0.20;0.20;;;9.60;99.90;;;;;;5089250;28;20813;-94
2022/09/26 02:18:22;;;;;;;0.20;0.20;;;9.60;99.90;;;;;;5071893;28;20472;-94
2022/09/26 02:20:54;;;;;;;0.30;0.30;;;9.70;99.90;;;;;;5082781;28;20445;-95
2022/09/26 02:23:20;;;;;;;0.30;0.30;;;9.70;99.90;;;;;;5092347;28;20451;-92
2022/09/26 02:25:46;;;;;;;0.20;0.20;;;9.70;99.90;;;;;;5092439;28;20443;-93
2022/09/26 02:28:13;;;;;;;0.20;0.20;;;9.70;99.90;;;;;;5091102;28;20446;-94
2022/09/26 02:30:40;;;;;;;0.20;0.20;;;9.70;99.90;;;;;;5093538;28;20212;-90
2022/09/26 02:33:06;;;;;;;0.20;0.20;;;9.80;99.90;;;;;;5090751;28;20914;-94
2022/09/26 02:36:09;;;;;;;0.20;0.20;;;9.70;99.90;;;;;;5092195;28;20481;-95
2022/09/26 02:38:27;;;;;;;0.20;0.20;;;9.70;99.90;;;;;;5080015;28;20629;-93
2022/09/26 02:41:12;;;;;;;0.30;0.30;;;9.80;99.90;;;;;;5074760;28;20450;-96
2022/09/26 02:44:09;;;;;;;0.30;0.30;;;9.80;99.90;;;;;;5084952;28;20435;-93
2022/09/26 02:46:58;;;;;;;0.30;0.30;;;9.80;99.90;;;;;;5086666;28;20431;-93
2022/09/26 02:49:52;;;;;;;0.20;0.20;;;9.80;99.90;;;;;;5086923;28;20790;-95
2022/09/26 02:52:45;;;;;;;0.20;0.20;;;9.80;99.90;;;;;;5069874;28;20433;-94
2022/09/26 02:55:19;;;;;;;0.30;0.30;;;9.80;99.90;;;;;;5086413;28;20427;-93
2022/09/26 02:58:16;;;;;;;0.20;0.20;;;9.80;99.90;;;;;;5080850;28;20535;-93
2022/09/26 03:01:16;;;;;;;0.30;0.30;;;9.80;99.90;;;;;;5069152;28;20465;-94
2022/09/26 03:03:46;;;;;;;0.20;0.20;;;9.80;99.90;;;;;;5078484;28;20432;-92
2022/09/26 03:06:16;;;;;;;0.20;0.20;;;9.80;99.90;;;;;;5067092;28;20440;-94
2022/09/26 03:08:46;;;;;;;0.20;0.20;;;9.80;99.90;;;;;;5072079;28;20580;-93
2022/09/26 03:11:18;;;;;;;0.20;0.20;;;9.80;99.90;;;;;;5091979;28;20439;-94
2022/09/26 03:13:45;;;;;;;0.30;0.30;;;9.80;99.90;;;;;;5084540;28;20475;-92
2022/09/26 03:16:12;;;;;;;0.20;0.20;;;9.80;99.90;;;;;;5063444;28;20444;-93
2022/09/26 03:18:52;;;;;;;0.20;0.20;;;9.80;99.90;;;;;;5070090;28;20447;-89
2022/09/26 03:21:18;;;;;;;0.20;0.20;;;9.80;99.90;;;;;;5068217;28;20446;-91
2022/09/26 03:23:44;;;;;;;0.20;0.20;;;9.80;99.90;;;;;;5089957;28;20447;-94
2022/09/26 03:26:14;;;;;;;0.20;0.20;;;9.80;99.90;;;;;;5092513;28;20201;-95
2022/09/26 03:28:40;;;;;;;0.30;0.30;;;9.80;99.90;;;;;;5089806;28;21018;-90
2022/09/26 03:31:06;;;;;;;0.20;0.20;;;9.80;99.90;;;;;;5070573;28;20437;-92
2022/09/26 03:33:32;;;;;;;0.20;0.20;;;9.80;99.90;;;;;;5069891;28;20272;-92
2022/09/26 03:36:00;;;;;;;0.30;0.30;;;9.80;99.90;;;;;;5091523;28;20185;-93
2022/09/26 03:38:26;;;;;;;0.20;0.20;;;9.80;99.90;;;;;;5074511;28;20685;-89
2022/09/26 03:40:52;;;;;;;0.20;0.20;;;9.80;99.90;;;;;;5079215;28;20438;-93
2022/09/26 03:43:18;;;;;;;0.20;0.20;;;9.80;99.90;;;;;;5096609;28;20473;-89
2022/09/26 03:45:43;;;;;;;0.30;0.30;;;9.80;99.90;;;;;;5079251;28;20971;-94
2022/09/26 03:48:09;;;;;;;0.20;0.20;;;9.70;99.90;;;;;;5065987;28;20277;-91
2022/09/26 03:50:34;;;;;;;0.30;0.30;;;9.80;99.90;;;;;;5090877;28;20182;-94
2022/09/26 03:53:00;;;;;;;0.20;0.20;;;9.70;99.90;;;;;;5091883;28;20189;-95
2022/09/26 03:55:26;;;;;;;0.20;0.20;;;9.70;99.90;;;;;;5095318;28;20181;-92
2022/09/26 03:57:52;;;;;;;0.20;0.20;;;9.70;99.90;;;;;;5076373;28;20698;-94
2022/09/26 04:00:17;;;;;;;0.20;0.20;;;9.70;99.90;;;;;;5092092;28;20572;-91
2022/09/26 04:02:43;;;;;;;0.20;0.20;;;9.70;99.90;;;;;;5087749;28;20196;-95
2022/09/26 04:05:09;;;;;;;0.20;0.20;;;9.70;99.90;;;;;;5088235;28;20197;-89
2022/09/26 04:07:34;;;;;;;0.20;0.20;;;9.70;99.90;;;;;;5089679;28;20631;-93
2022/09/26 04:10:00;;;;;;;0.20;0.20;;;9.70;99.90;;;;;;5088054;28;20293;-94
2022/09/26 04:12:26;;;;;;;0.20;0.20;;;9.70;99.90;;;;;;5073830;28;20217;-93
2022/09/26 04:14:52;;;;;;;0.30;0.30;;;9.70;99.90;;;;;;5094730;28;20181;-92
2022/09/26 04:17:18;;;;;;;0.20;0.20;;;9.70;99.90;;;;;;5094098;28;20570;-92
2022/09/26 04:19:44;;;;;;;0.20;0.20;;;9.70;99.90;;;;;;5077017;28;20526;-94
2022/09/26 04:22:09;;;;;;;0.20;0.20;;;9.70;99.90;;;;;;5076490;28;20193;-94
2022/09/26 04:24:35;;;;;;;0.20;0.20;;;9.70;99.90;;;;;;5092262;28;20196;-94
2022/09/26 04:27:00;;;;;;;0.20;0.20;;;9.70;99.90;;;;;;5092444;28;20189;-94
2022/09/26 04:29:26;;;;;;;0.20;0.20;;;9.70;99.90;;;;;;5092145;28;20189;-93
2022/09/26 04:31:52;;;;;;;0.20;0.20;;;9.70;99.90;;;;;;5090085;28;20185;-94
2022/09/26 04:34:18;;;;;;;0.20;0.20;;;9.70;99.90;;;;;;5094685;28;20575;-93
2022/09/26 04:36:43;;;;;;;0.20;0.20;;;9.70;99.90;;;;;;5095593;28;20466;-92
2022/09/26 04:39:09;;;;;;;0.20;0.20;;;9.60;99.90;;;;;;5089692;28;20448;-95
2022/09/26 04:41:36;;;;;;;0.30;0.30;;;9.70;99.90;;;;;;5089345;28;20177;-95
2022/09/26 04:44:02;;;;;;;0.20;0.20;;;9.60;99.90;;;;;;5070289;28;20440;-93
2022/09/26 04:46:29;;;;;;;0.30;0.30;;;9.60;99.90;;;;;;5059653;28;20490;-93
2022/09/26 04:48:56;;;;;;;0.20;0.20;;;9.60;99.90;;;;;;5068729;28;20193;-93
2022/09/26 04:51:23;;;;;;;0.20;0.20;;;9.60;99.90;;;;;;5071968;28;20816;-93
2022/09/26 04:53:50;;;;;;;0.20;0.20;;;9.60;99.90;;;;;;5066046;28;20443;-93
2022/09/26 04:56:17;;;;;;;0.20;0.20;;;9.60;99.90;;;;;;5069148;28;20453;-95
2022/09/26 04:58:43;;;;;;;0.20;0.20;;;9.60;99.90;;;;;;5080748;28;20465;-95
2022/09/26 05:01:11;;;;;;;0.20;0.20;;;9.60;99.90;;;;;;5067715;28;20415;-93
2022/09/26 05:03:37;;;;;;;0.20;0.20;;;9.60;99.90;;;;;;5077673;28;21382;-90
2022/09/26 05:06:06;;;;;;;0.20;0.20;;;9.60;99.90;;;;;;5083864;28;20868;-93
2022/09/26 05:08:31;;;;;;;0.20;0.20;;;9.50;99.90;;;;;;5091479;28;20235;-93
2022/09/26 05:10:57;;;;;;;0.20;0.20;;;9.50;99.90;;;;;;5069343;28;20444;-94
2022/09/26 05:13:23;;;;;;;0.20;0.20;;;9.50;99.90;;;;;;5086902;28;20248;-93
2022/09/26 05:15:52;;;;;;;0.20;0.20;;;9.50;99.90;;;;;;5091812;28;20234;-93
2022/09/26 05:18:17;;;;;;;0.20;0.20;;;9.50;99.90;;;;;;5066532;28;20511;-93
2022/09/26 05:20:47;;;;;;;0.30;0.30;;;9.50;99.90;;;;;;5083566;28;20482;-94
2022/09/26 05:23:13;;;;;;;0.30;0.30;;;9.50;99.90;;;;;;5084503;28;20439;-92
2022/09/26 05:28:25;;;;;;;0.20;0.20;;;9.50;99.90;;;;;;5086981;28;21346;-89
2022/09/26 05:30:51;;;;;;;0.20;0.20;;;9.50;99.90;;;;;;5084197;28;20508;-90
2022/09/26 05:33:21;;;;;;;0.20;0.20;;;9.60;99.90;;;;;;5091437;28;20475;-93
2022/09/26 05:35:52;;;;;;;0.20;0.20;;;9.60;99.90;;;;;;5096688;28;20438;-90
2022/09/26 05:38:18;;;;;;;0.20;0.20;;;9.60;99.90;;;;;;5072102;28;20482;-92
2022/09/26 05:40:55;;;;;;;0.30;0.30;;;9.60;99.90;;;;;;5092989;28;20531;-94
2022/09/26 05:43:22;;;;;;;0.20;0.20;;;9.60;99.90;;;;;;5088870;28;20207;-91
2022/09/26 05:45:48;;;;;;;0.20;0.20;;;9.60;99.90;;;;;;5088083;28;20949;-93
2022/09/26 05:48:15;;;;;;;0.20;0.20;;;9.60;99.90;;;;;;5082396;28;20525;-92
2022/09/26 05:50:40;;;;;;;0.20;0.20;;;9.60;99.90;;;;;;5093532;28;20446;-92
2022/09/26 05:53:06;;;;;;;0.20;0.20;;;9.70;99.90;;;;;;5072443;28;20435;-90
2022/09/26 05:55:31;;;;;;;0.20;0.20;;;9.70;99.90;;;;;;5073695;28;20185;-91
2022/09/26 05:57:57;;;;;;;0.20;0.20;;;9.70;99.90;;;;;;5090395;28;20212;-92
2022/09/26 06:00:24;;;;;;;0.20;0.20;;;9.80;99.90;;;;;;5084920;28;20177;-89
2022/09/26 06:02:57;;;;;;;0.30;0.30;;;9.80;99.90;;;;;;5092262;28;20212;-93
2022/09/26 06:05:26;;;;;;;0.20;0.20;;;9.80;99.90;;;;;;5089525;28;20423;-92
2022/09/26 06:07:51;;;;;;;0.20;0.20;;;9.80;99.90;;;;;;5084668;28;22276;-94
2022/09/26 06:10:19;;;;;;;0.20;0.20;;;9.80;99.90;;;;;;5092706;28;20496;-93
2022/09/26 06:12:45;;;;;;;0.20;0.20;;;9.80;99.90;;;;;;5072613;28;20244;-94
2022/09/26 06:15:11;;;;;;;0.20;0.20;;;9.90;99.90;;;;;;5092663;28;20446;-93
2022/09/26 06:17:37;;;;;;;0.20;0.20;;;9.80;99.90;;;;;;5093029;28;20482;-92
2022/09/26 06:20:04;;;;;;;0.20;0.20;;;9.90;99.90;;;;;;5092935;28;20918;-90
2022/09/26 06:22:32;;;;;;;0.20;0.20;;;9.90;99.90;;;;;;5080765;28;20455;-90
2022/09/26 06:24:58;;;;;;;0.20;0.20;;;9.90;99.90;;;;;;5088683;28;20446;-88
2022/09/26 06:27:24;;;;;;;0.20;0.20;;;9.90;99.90;;;;;;5071080;28;20442;-90
2022/09/26 06:29:50;;;;;;;0.20;0.20;;;10.00;99.90;;;;;;5081464;28;20427;-91
2022/09/26 06:32:15;;;;;;;0.20;0.20;;;10.00;99.90;;;;;;5069978;28;20188;-89
2022/09/26 06:34:41;;;;;;;0.20;0.20;;;10.10;99.90;;;;;;5067781;28;20648;-90
2022/09/26 06:37:06;;;;;;;0.20;0.20;;;10.00;99.90;;;;;;5085412;28;20751;-85
2022/09/26 06:39:35;;;;;;;0.20;0.20;;;10.00;99.90;;;;;;5068931;28;20290;-86
2022/09/26 06:42:02;;;;;;;0.20;0.20;;;10.00;99.90;;;;;;5087764;28;20218;-86
2022/09/26 06:44:27;;;;;;;0.20;0.20;;;10.00;99.90;;;;;;5084683;28;20529;-83
2022/09/26 06:46:54;;;;;;;0.23;0.23;;;10.10;99.90;;;;;;5085976;28;20442;-82
2022/09/26 06:49:19;;;;;;;0.20;0.20;;;10.10;99.90;;;;;;5087752;28;20184;-81
2022/09/26 06:51:48;;;;;;;0.20;0.20;;;10.20;99.90;;;;;;5085216;28;21078;-81
2022/09/26 06:54:13;;;;;;;0.20;0.20;;;10.20;99.90;;;;;;5087359;28;20644;-82
2022/09/26 06:56:39;;;;;;;0.20;0.20;;;10.30;99.90;;;;;;5071709;28;20477;-82
2022/09/26 06:59:04;;;;;;;0.20;0.20;;;10.40;99.90;;;;;;5072791;28;20554;-80
2022/09/26 07:01:30;;;;;;;0.20;0.20;;;10.50;99.90;;;;;;5083105;28;20196;-81
2022/09/26 07:03:55;;;;;;;0.20;0.20;;;10.50;99.90;;;;;;5062174;28;20177;-83
2022/09/26 07:06:21;;;;;;;0.20;0.20;;;10.60;99.90;;;;;;5088506;28;20545;-84
2022/09/26 07:08:46;;;;;;;0.20;0.20;;;10.50;99.90;;;;;;5067294;28;20292;-83
2022/09/26 07:11:12;;;;;;;0.30;0.30;;;10.60;99.90;;;;;;5071828;28;20185;-82
2022/09/26 07:13:38;;;;;;;0.20;0.20;;;10.60;99.90;;;;;;5089101;28;20263;-81
2022/09/26 07:16:04;;;;;;;0.20;0.20;;;10.60;99.90;;;;;;5079632;28;20189;-82
2022/09/26 07:18:29;;;;;;;0.20;0.20;;;10.60;99.90;;;;;;5071493;28;20524;-82
2022/09/26 07:20:55;;;;;;;0.20;0.20;;;10.70;99.90;;;;;;5070224;28;20449;-83
2022/09/26 07:23:21;;;;;;;0.20;0.20;;;10.70;99.90;;;;;;5072839;28;20284;-84
2022/09/26 07:25:47;;;;;;;0.20;0.20;;;10.70;99.90;;;;;;5071828;28;20665;-82
2022/09/26 07:28:12;;;;;;;0.20;0.20;;;10.70;99.90;;;;;;5086219;28;20451;-81
2022/09/26 07:30:38;;;;;;;0.20;0.20;;;10.80;99.90;;;;;;5087860;28;20177;-82
2022/09/26 07:33:04;;;;;;;0.20;0.20;;;10.90;99.90;;;;;;5083525;28;20756;-83
2022/09/26 07:35:32;;;;;;;0.20;0.20;;;10.90;99.90;;;;;;5088744;28;20208;-81
2022/09/26 07:37:58;;;;;;;0.20;0.20;;;10.90;99.90;;;;;;5084889;28;20993;-81
2022/09/26 07:40:27;;;;;;;0.20;0.20;;;10.90;99.90;;;;;;5087025;28;20535;-81
2022/09/26 07:42:57;;;;;;;0.20;0.20;;;11.10;99.90;;;;;;5082470;28;20189;-81
2022/09/26 07:51:05;;;;;;;0.20;0.20;;;11.40;99.90;;;;;;5090256;28;20572;-82
2022/09/26 07:53:31;;;;;;;0.20;0.20;;;11.40;99.90;;;;;;5091041;28;20514;-78
2022/09/26 07:56:05;;;;;;;0.20;0.20;;;11.50;99.90;;;;;;5090978;28;20184;-86
2022/09/26 07:58:32;;;;;;;0.20;0.20;;;11.50;99.90;;;;;;5089840;28;20446;-84
2022/09/26 08:00:58;;;;;;;0.20;0.20;;;11.60;99.90;;;;;;5079391;28;20443;-83
2022/09/26 08:03:28;;;;;;;0.20;0.20;;;11.60;99.90;;;;;;5082597;28;20530;-83
2022/09/26 08:05:57;;;;;;;0.20;0.20;;;11.50;99.90;;;;;;5089093;28;20185;-85
2022/09/26 08:08:22;;;;;;;0.20;0.20;;;11.40;99.90;;;;;;5069396;28;20446;-87
2022/09/26 08:10:48;;;;;;;0.20;0.20;;;11.40;99.90;;;;;;5087726;28;20450;-84
2022/09/26 08:13:13;;;;;;;0.20;0.20;;;11.40;99.90;;;;;;5084297;28;20221;-86
2022/09/26 08:15:39;;;;;;;0.20;0.20;;;11.30;99.90;;;;;;5094192;28;20189;-87
2022/09/26 08:18:05;;;;;;;0.20;0.20;;;11.40;99.90;;;;;;5085616;28;20799;-92
2022/09/26 08:20:30;;;;;;;0.20;0.20;;;11.30;99.90;;;;;;5084618;28;20431;-85
2022/09/26 08:22:56;;;;;;;0.20;0.20;;;11.20;99.90;;;;;;5086659;28;20177;-87
2022/09/26 08:25:22;;;;;;;0.20;0.20;;;11.10;99.90;;;;;;5070368;28;20256;-86
2022/09/26 08:27:58;;;;;;;0.30;0.30;;;11.10;99.90;;;;;;5085836;28;20197;-91
2022/09/26 08:30:24;;;;;;;0.20;0.20;;;11.00;99.90;;;;;;5081264;28;20633;-86
2022/09/26 08:32:53;;;;;;;0.20;0.20;;;11.00;99.90;;;;;;5088003;28;20449;-91
2022/09/26 08:35:19;;;;;;;0.20;0.20;;;11.00;99.90;;;;;;5090202;28;20448;-94
2022/09/26 08:37:45;;;;;;;0.20;0.20;;;11.00;99.90;;;;;;5073492;28;20474;-92
2022/09/26 08:40:11;;;;;;;0.20;0.20;;;10.90;99.90;;;;;;5092665;28;20443;-88
2022/09/26 08:42:58;;;;;;;0.20;0.20;;;10.90;99.90;;;;;;5088894;28;20238;-91
2022/09/26 08:48:42;;;;;;;0.20;0.20;;;10.90;99.90;;;;;;5087008;28;20440;-92
2022/09/26 08:51:16;;;;;;;0.20;0.20;;;10.80;99.90;;;;;;5088109;28;20438;-92
2022/09/26 08:53:48;;;;;;;0.20;0.20;;;10.90;99.90;;;;;;5084767;28;20432;-89
2022/09/26 08:56:38;;;;;;;0.20;0.20;;;10.80;99.90;;;;;;5069119;28;20519;-90
2022/09/26 08:59:10;;;;;;;0.20;0.20;;;10.90;99.90;;;;;;5084192;28;20542;-92
2022/09/26 09:01:40;;;;;;;0.20;0.20;;;10.90;99.90;;;;;;5067395;28;20481;-89
2022/09/26 09:04:31;;;;;;;0.20;0.20;;;10.80;99.90;;;;;;5090249;28;20444;-86
2022/09/26 09:07:06;;;;;;;0.20;0.20;;;10.90;99.90;;;;;;5074923;28;20463;-92
2022/09/26 09:09:31;;;;;;;0.20;0.20;;;11.00;99.90;;;;;;5090887;28;20435;-90
2022/09/26 09:12:15;;;;;;;0.30;0.30;;;11.00;99.90;;;;;;5092243;28;20981;-92
2022/09/26 09:14:58;;;;;;;0.20;0.20;;;11.00;99.90;;;;;;5068635;28;20327;-92
2022/09/26 09:17:50;;;;;;;0.20;0.20;;;11.20;99.90;;;;;;5084086;28;20506;-91
2022/09/26 09:20:40;;;;;;;0.20;0.20;;;11.30;99.90;;;;;;5090726;28;20439;-90
2022/09/26 09:23:41;;;;;;;0.20;0.20;;;11.40;99.90;;;;;;5084334;28;20443;-90
2022/09/26 09:26:33;;;;;;;0.20;0.20;;;11.60;99.90;;;;;;5088855;28;20522;-89
2022/09/26 09:29:08;;;;;;;0.20;0.20;;;12.30;99.90;;;;;;5085907;28;20454;-90
2022/09/26 09:31:39;;;;;;;0.20;0.20;;;12.30;99.90;;;;;;5070827;28;20474;-91
2022/09/26 09:34:10;;;;;;;0.20;0.20;;;12.20;99.90;;;;;;5068529;28;20962;-93
2022/09/26 09:36:43;;;;;;;0.20;0.20;;;12.40;99.90;;;;;;5079835;28;20544;-91
2022/09/26 09:39:15;;;;;;;0.20;0.20;;;12.30;99.90;;;;;;5072672;28;21083;-91
2022/09/26 09:41:52;;;;;;;0.20;0.20;;;12.40;99.90;;;;;;5090483;28;20427;-91
2022/09/26 09:44:37;;;;;;;0.20;0.20;;;12.70;99.90;;;;;;5087059;28;20442;-91
2022/09/26 09:47:13;;;;;;;0.20;0.20;;;12.70;99.90;;;;;;5089753;28;20516;-90
2022/09/26 09:49:40;;;;;;;0.20;0.20;;;12.80;99.90;;;;;;5068167;28;20439;-91
2022/09/26 09:52:23;;;;;;;0.20;0.20;;;12.80;99.90;;;;;;5083586;28;20974;-93
2022/09/26 09:55:30;;;;;;;0.20;0.20;;;12.70;99.90;;;;;;5088002;28;20511;-87
2022/09/26 09:58:15;;;;;;;0.20;0.20;;;12.70;99.90;;;;;;5090185;28;20569;-89
2022/09/26 10:01:06;;;;;;;0.20;0.20;;;13.00;99.90;;;;;;5077161;28;20424;-93
2022/09/26 10:03:40;;;;;;;0.17;0.17;;;12.90;99.90;;;;;;5065358;28;20446;-94
2022/09/26 10:06:09;;;;;;;0.20;0.20;;;12.90;99.90;;;;;;5087927;28;20437;-92
2022/09/26 10:08:41;;;;;;;0.10;0.10;;;12.80;99.90;;;;;;5069719;28;20431;-88
2022/09/26 10:11:22;;;;;;;0.10;0.10;;;13.00;99.90;;;;;;5081863;28;20451;-91
2022/09/26 10:13:52;;;;;;;0.20;0.20;;;13.10;99.90;;;;;;5089968;28;20903;-90
2022/09/26 10:16:18;;;;;;;0.20;0.20;;;12.90;99.90;;;;;;5070621;28;20471;-88
2022/09/26 10:18:55;;;;;;;0.20;0.20;;;12.90;99.90;;;;;;5091314;28;20600;-88
2022/09/26 10:21:31;;;;;;;0.10;0.10;;;12.70;99.90;;;;;;5087526;28;20178;-91
2022/09/26 10:23:57;;;;;;;0.20;0.20;;;12.70;99.90;;;;;;5086976;28;20439;-85
2022/09/26 10:26:33;;;;;;;0.13;0.13;;;12.50;99.90;;;;;;5086322;28;21027;-85
2022/09/26 10:29:07;;;;;;;0.13;0.13;;;12.70;99.90;;;;;;5087462;28;20507;-86
2022/09/26 10:31:38;;;;;;;0.20;0.20;;;12.60;99.90;;;;;;5070974;28;20439;-86
2022/09/26 10:34:22;;;;;;;0.20;0.20;;;12.60;99.90;;;;;;5087387;28;20451;-86
2022/09/26 10:36:48;;;;;;;0.10;0.10;;;12.60;99.90;;;;;;5073116;28;20493;-89
2022/09/26 10:42:18;;;;;;;0.20;0.20;;;12.50;99.90;;;;;;5071152;28;20592;-86
2022/09/26 10:44:46;;;;;;;0.20;0.20;;;12.50;99.90;;;;;;5097179;28;20907;-85
2022/09/26 10:47:25;;;;;;;0.20;0.20;;;12.40;99.90;;;;;;5079647;28;20467;-88
2022/09/26 10:49:58;;;;;;;0.20;0.20;;;12.30;99.90;;;;;;5083967;28;20446;-88
2022/09/26 10:52:39;;;;;;;0.20;0.20;;;12.20;99.90;;;;;;5077412;28;20518;-86
2022/09/26 10:55:15;;;;;;;0.20;0.20;;;12.20;99.90;;;;;;5067594;28;20440;-89
2022/09/26 10:58:16;;;;;;;0.20;0.20;;;12.20;99.90;;;;;;5098442;28;20515;-87
2022/09/26 11:00:43;;;;;;;0.20;0.20;;;12.30;99.90;;;;;;5079207;28;20441;-88
2022/09/26 11:03:15;;;;;;;0.20;0.20;;;12.30;99.90;;;;;;5066931;28;20431;-86
2022/09/26 11:05:55;;;;;;;0.10;0.10;;;12.50;99.90;;;;;;5089388;28;20447;-87
2022/09/26 11:08:28;;;;;;;0.20;0.20;;;12.50;99.90;;;;;;5071440;28;20434;-86
2022/09/26 11:10:57;;;;;;;0.10;0.10;;;12.60;99.90;;;;;;5068748;28;20447;-90
2022/09/26 11:13:25;;;;;;;0.20;0.20;;;12.70;99.90;;;;;;5087448;28;20494;-86
2022/09/26 11:16:00;;;;;;;0.20;0.20;;;12.60;99.90;;;;;;5071828;28;20759;-85
2022/09/26 11:18:43;;;;;;;0.20;0.20;;;12.50;99.90;;;;;;5084401;28;20509;-84
2022/09/26 11:21:24;;;;;;;0.10;0.10;;;12.70;99.90;;;;;;5083960;28;20447;-86
2022/09/26 11:24:16;;;;;;;0.10;0.10;;;12.60;99.90;;;;;;5083835;28;20512;-87
2022/09/26 11:27:29;;;;;;;0.20;0.20;;;12.50;99.90;;;;;;5044316;28;20461;-87
2022/09/26 11:30:08;;;;;;;0.20;0.20;;;12.70;99.90;;;;;;5060713;28;20589;-86
2022/09/26 11:32:42;;;;;;;0.10;0.10;;;12.80;99.90;;;;;;5086030;28;20431;-89
2022/09/26 11:35:48;;;;;;;0.20;0.20;;;12.80;99.90;;;;;;5087964;28;20434;-87
2022/09/26 11:38:23;;;;;;;0.20;0.20;;;12.80;99.90;;;;;;5083814;28;20482;-87
2022/09/26 11:41:02;;;;;;;0.20;0.20;;;12.80;99.90;;;;;;5087745;28;20505;-87
2022/09/26 11:43:49;;;;;;;0.20;0.20;;;12.60;99.90;;;;;;5053368;28;20448;-89
2022/09/26 11:46:27;;;;;;;0.20;0.20;;;12.70;99.90;;;;;;5086711;28;20443;-88
2022/09/26 11:49:20;;;;;;;0.20;0.20;;;12.70;99.90;;;;;;5082949;28;20485;-92
2022/09/26 11:52:13;;;;;;;0.20;0.20;;;12.70;99.90;;;;;;5080898;28;20447;-88
2022/09/26 11:55:00;;;;;;;0.20;0.20;;;12.60;99.90;;;;;;5082253;28;20436;-88
2022/09/26 11:57:35;;;;;;;0.20;0.20;;;12.50;99.90;;;;;;5086120;28;20514;-88
2022/09/26 12:00:14;;;;;;;0.13;0.13;;;12.50;99.90;;;;;;5088435;28;20445;-88
2022/09/26 12:02:54;;;;;;;0.20;0.20;;;12.40;99.90;;;;;;5091290;28;20907;-88
2022/09/26 12:05:38;;;;;;;0.20;0.20;;;12.40;99.90;;;;;;5071045;28;20511;-88
2022/09/26 12:08:18;;;;;;;0.20;0.20;;;12.40;99.90;;;;;;5063183;28;20809;-88
2022/09/26 12:10:49;;;;;;;0.20;0.20;;;12.30;99.90;;;;;;5075160;28;20427;-90
2022/09/26 12:13:33;;;;;;;0.20;0.20;;;12.30;99.90;;;;;;5091157;28;21042;-90
2022/09/26 12:16:21;;;;;;;0.20;0.20;;;12.30;99.90;;;;;;5092806;28;20439;-92
2022/09/26 12:19:15;;;;;;;0.10;0.10;;;12.30;99.90;;;;;;5093711;28;20462;-88
2022/09/26 12:25:37;;;;;;;0.20;0.20;;;12.30;99.90;;;;;;5091226;28;20539;-90
2022/09/26 12:28:43;;;;;;;0.20;0.20;;;12.20;99.90;;;;;;5058305;28;20962;-92
2022/09/26 12:31:19;;;;;;;0.20;0.20;;;12.20;99.90;;;;;;5072205;28;20440;-90
2022/09/26 12:33:45;;;;;;;0.20;0.20;;;12.20;99.90;;;;;;5095755;28;20438;-85
2022/09/26 12:36:21;;;;;;;0.20;0.20;;;12.20;99.90;;;;;;5074144;28;20477;-88
2022/09/26 12:39:34;;;;;;;0.20;0.20;;;12.20;99.90;;;;;;5084223;28;20200;-91
2022/09/26 12:42:17;;;;;;;0.20;0.20;;;12.30;99.90;;;;;;5022784;28;20440;-87
2022/09/26 12:44:45;;;;;;;0.20;0.20;;;12.30;99.90;;;;;;5070750;28;20435;-90
2022/09/26 12:47:38;;;;;;;0.20;0.20;;;12.30;99.90;;;;;;5085407;28;20435;-91
2022/09/26 12:50:29;;;;;;;0.10;0.10;;;12.30;99.90;;;;;;5070856;28;20484;-88
2022/09/26 12:53:10;;;;;;;0.20;0.20;;;12.30;99.90;;;;;;5072581;28;20431;-91
2022/09/26 12:55:40;;;;;;;0.20;0.20;;;12.30;99.90;;;;;;5080894;28;20529;-91
2022/09/26 12:58:42;;;;;;;0.20;0.20;;;12.30;99.90;;;;;;5064385;28;20859;-91
2022/09/26 13:01:42;;;;;;;0.20;0.20;;;12.20;99.90;;;;;;5084435;28;20435;-92
2022/09/26 13:04:46;;;;;;;0.20;0.20;;;12.10;99.90;;;;;;5089950;28;20446;-89
2022/09/26 13:07:34;;;;;;;0.20;0.20;;;12.00;99.90;;;;;;5085600;28;20443;-93
2022/09/26 13:10:16;;;;;;;0.20;0.20;;;11.90;99.90;;;;;;5090607;28;20475;-92
2022/09/26 13:12:57;;;;;;;0.20;0.20;;;11.80;99.90;;;;;;5091238;28;20471;-92
2022/09/26 13:16:11;;;;;;;0.20;0.20;;;11.80;99.90;;;;;;5074592;28;20450;-93
2022/09/26 13:18:44;;;;;;;0.20;0.20;;;11.70;99.90;;;;;;5053993;28;20475;-93
2022/09/26 13:21:14;;;;;;;0.20;0.20;;;11.70;99.90;;;;;;5076120;28;21019;-94
2022/09/26 13:23:47;;;;;;;0.20;0.20;;;11.50;99.90;;;;;;5081576;28;20444;-90
2022/09/26 13:26:41;;;;;;;0.20;0.20;;;11.50;99.90;;;;;;5074104;28;20501;-95
2022/09/26 13:29:11;;;;;;;0.20;0.20;;;11.40;99.90;;;;;;5061517;28;20436;-93
2022/09/26 13:31:47;;;;;;;0.20;0.20;;;11.40;99.90;;;;;;5076853;28;20431;-92
2022/09/26 13:34:24;;;;;;;0.20;0.20;;;11.30;99.90;;;;;;5087630;28;20443;-90
2022/09/26 13:36:50;;;;;;;0.20;0.20;;;11.30;99.90;;;;;;5073951;28;20471;-96
2022/09/26 13:39:49;;;;;;;0.20;0.20;;;11.20;99.90;;;;;;5089187;28;20439;-93
2022/09/26 13:42:24;;;;;;;0.20;0.20;;;11.20;99.90;;;;;;5023625;28;20442;-94
2022/09/26 13:44:54;;;;;;;0.20;0.20;;;11.10;99.90;;;;;;5078320;28;20436;-93